Terminal Aerodrome Forecast
Issued by NWS

Current Version | Previous Version | Graphics & Text | Print | Product List | Glossary On
Versions: 1 2 3 4 5 6 7 8 9 10 11 12 13 14 15 16
000
FTUS41 KILN 311500 AAA
TAFLCK
TAF AMD
KLCK 311547Z 3116/0112 22007KT P6SM OVC050
     FM311800 26008KT P6SM -SHRA OVC040
     FM312000 30010KT P6SM -SHRA BKN015 OVC025
     FM010000 32012G20KT P6SM -SHRA OVC012
     FM010400 33014G24KT 5SM -RA BR OVC009=

USA.gov is the U.S. government's official web portal to all federal, state and local government web resources and services.